Time;durP1;ratioP1;P1;durP2;ratioP2;P2;SDS_P1;SDS_P2;PMS_P1;PMS_P2;Temp;Humidity;BMP_temperature;BMP_pressure;BME280_temperature;BME280_humidity;BME280_pressure;Samples;Min_cycle;Max_cycle;Signal;HPM_P1;HPM_P2
2022/09/16 00:00:18;;;;;;;2.95;1.42;;;;;;;25.41;52.88;100366.95;1552869;92;21128;-53
2022/09/16 00:02:45;;;;;;;4.47;2.00;;;;;;;25.39;52.90;100363.56;1552941;92;21054;-51
2022/09/16 00:05:12;;;;;;;3.83;1.70;;;;;;;25.39;52.90;100363.56;1552455;92;21106;-53
2022/09/16 00:07:39;;;;;;;3.12;1.57;;;;;;;25.38;52.63;100358.38;1552813;92;21081;-55
2022/09/16 00:10:07;;;;;;;8.40;2.75;;;;;;;25.37;52.47;100359.37;1550678;92;21115;-52
2022/09/16 00:12:34;;;;;;;16.65;4.30;;;;;;;25.35;52.44;100354.67;1553937;92;21069;-51
2022/09/16 00:15:01;;;;;;;14.75;4.62;;;;;;;25.33;52.23;100356.12;1561299;92;21083;-55
2022/09/16 00:17:28;;;;;;;19.92;5.95;;;;;;;25.32;52.03;100355.78;1550109;92;21133;-54
2022/09/16 00:19:56;;;;;;;13.03;3.83;;;;;;;25.30;52.00;100343.09;1615813;82;21524;-51
2022/09/16 00:22:23;;;;;;;16.30;3.92;;;;;;;25.30;51.98;100349.75;1741872;82;20997;-51
2022/09/16 00:24:50;;;;;;;12.23;3.77;;;;;;;25.28;51.97;100358.36;1705992;84;21022;-51
2022/09/16 00:27:16;;;;;;;12.58;4.00;;;;;;;25.25;52.62;100358.63;1706282;84;21024;-53
2022/09/16 00:29:43;;;;;;;12.68;3.72;;;;;;;25.25;52.62;100358.63;1675195;85;21499;-51
2022/09/16 00:32:10;;;;;;;12.93;3.58;;;;;;;25.23;52.40;100361.91;1674377;86;21049;-52
2022/09/16 00:34:36;;;;;;;9.78;3.35;;;;;;;25.23;52.40;100357.91;1705985;84;21024;-51
2022/09/16 00:37:07;;;;;;;14.05;3.98;;;;;;;25.22;52.28;100358.06;1672380;86;21023;-55
2022/09/16 00:39:34;;;;;;;19.60;4.05;;;;;;;25.20;52.05;100352.87;1676339;86;21486;-55
2022/09/16 00:42:02;;;;;;;12.40;3.72;;;;;;;25.17;52.09;100354.47;1705946;84;21064;-53
2022/09/16 00:44:57;;;;;;;20.20;5.58;;;;;;;25.16;52.27;100359.45;1675676;85;21024;-51
2022/09/16 00:47:38;;;;;;;19.07;4.83;;;;;;;25.14;52.36;100357.41;1705952;84;21033;-54
2022/09/16 00:50:15;;;;;;;37.83;7.97;;;;;;;25.13;52.48;100358.38;1672816;86;21070;-54
2022/09/16 00:52:42;;;;;;;18.80;6.92;;;;;;;25.09;52.72;100355.63;1676401;86;21029;-57
2022/09/16 00:55:13;;;;;;;29.90;7.45;;;;;;;25.08;52.92;100355.78;1705993;84;21056;-54
2022/09/16 00:57:39;;;;;;;16.60;4.53;;;;;;;25.06;53.08;100345.24;1672677;84;20995;-55
2022/09/16 01:00:11;;;;;;;20.88;5.25;;;;;;;25.05;53.43;100344.91;1676173;86;21516;-61
2022/09/16 01:02:39;;;;;;;17.30;3.72;;;;;;;25.06;53.72;100340.42;1706070;84;21037;-57
2022/09/16 01:05:11;;;;;;;11.10;2.80;;;;;;;25.05;53.82;100334.25;1672588;86;21483;-61
2022/09/16 01:07:43;;;;;;;6.45;2.33;;;;;;;25.06;53.44;100326.60;1652781;86;21077;-54
2022/09/16 01:10:12;;;;;;;3.52;1.45;;;;;;;25.07;53.00;100330.97;1665125;86;21018;-54
2022/09/16 01:12:42;;;;;;;5.53;1.20;;;;;;;25.08;52.91;100335.30;1664170;86;21003;-54
2022/09/16 01:15:10;;;;;;;2.85;1.50;;;;;;;25.12;52.98;100325.24;1663517;86;21509;-54
2022/09/16 01:18:12;;;;;;;6.75;1.67;;;;;;;25.15;53.49;100323.62;1700789;84;21084;-53
2022/09/16 01:20:53;;;;;;;5.60;1.57;;;;;;;25.17;53.68;100323.84;1701544;84;21065;-52
2022/09/16 01:23:54;;;;;;;2.67;1.30;;;;;;;25.22;54.01;100322.96;1698598;84;21045;-52
2022/09/16 01:27:09;;;;;;;3.83;1.33;;;;;;;25.24;53.94;100318.34;1699500;84;21041;-54
2022/09/16 01:30:20;;;;;;;2.60;1.10;;;;;;;25.29;53.73;100325.41;1668203;86;21010;-56
2022/09/16 01:33:03;;;;;;;2.05;1.20;;;;;;;25.31;53.40;100322.13;1670108;86;21156;-56
2022/09/16 01:35:54;;;;;;;5.20;1.40;;;;;;;25.34;53.29;100320.53;1702499;84;21064;-54
2022/09/16 01:38:49;;;;;;;9.48;1.90;;;;;;;25.39;53.63;100326.27;1700342;84;21030;-54
2022/09/16 01:41:37;;;;;;;4.70;1.40;;;;;;;25.39;53.63;100326.27;1664641;86;21057;-54
2022/09/16 01:44:27;;;;;;;3.45;1.25;;;;;;;25.41;54.44;100323.01;1656533;86;21085;-56
2022/09/16 01:47:02;;;;;;;3.80;1.92;;;;;;;25.44;54.96;100327.22;1664675;86;21038;-53
2022/09/16 01:49:40;;;;;;;11.93;2.02;;;;;;;25.46;55.29;100326.59;1668082;86;21038;-58
2022/09/16 01:52:18;;;;;;;7.75;2.50;;;;;;;25.49;56.05;100328.48;1664608;86;21501;-54
2022/09/16 01:55:04;;;;;;;6.65;2.62;;;;;;;25.53;56.53;100336.55;1667962;86;21073;-54
2022/09/16 01:58:12;;;;;;;5.60;2.02;;;;;;;25.55;56.68;100331.95;1664841;86;21074;-59
2022/09/16 02:00:40;;;;;;;3.52;1.60;;;;;;;25.58;57.08;100330.81;1666178;86;21506;-53
2022/09/16 02:03:12;;;;;;;2.85;1.55;;;;;;;25.59;57.13;100324.52;1663581;86;21522;-56
2022/09/16 02:05:50;;;;;;;2.75;1.60;;;;;;;25.60;57.05;100313.72;1687983;85;21033;-54
2022/09/16 02:08:33;;;;;;;2.02;1.27;;;;;;;25.62;56.96;100311.75;1685955;85;21085;-57
2022/09/16 02:11:01;;;;;;;5.22;1.27;;;;;;;25.64;56.60;100307.12;1606130;89;21064;-54
2022/09/16 02:13:40;;;;;;;4.10;1.52;;;;;;;25.65;56.27;100310.16;1585753;89;21019;-56
2022/09/16 02:16:13;;;;;;;4.42;1.90;;;;;;;25.67;56.19;100309.52;1603124;89;21577;-54
2022/09/16 02:18:41;;;;;;;4.55;1.65;;;;;;;25.70;56.41;100309.23;1615935;88;21198;-54
2022/09/16 02:21:11;;;;;;;11.68;2.22;;;;;;;25.72;56.67;100311.26;1614771;88;21590;-58
2022/09/16 02:23:42;;;;;;;5.72;2.10;;;;;;;25.75;57.09;100309.66;1620239;88;21007;-56
2022/09/16 02:26:10;;;;;;;12.40;3.27;;;;;;;25.76;57.33;100307.33;1617035;88;21078;-56
2022/09/16 02:28:39;;;;;;;5.92;3.08;;;;;;;25.79;57.61;100304.40;1609322;88;21119;-58
2022/09/16 02:31:08;;;;;;;9.80;3.22;;;;;;;25.80;57.63;100300.73;1623266;88;21081;-53
2022/09/16 02:33:40;;;;;;;5.35;2.50;;;;;;;25.82;57.66;100292.62;1612215;88;21015;-53
2022/09/16 02:36:07;;;;;;;6.45;2.60;;;;;;;25.83;57.66;100283.63;1612523;88;21068;-54
2022/09/16 02:38:43;;;;;;;6.97;2.60;;;;;;;25.86;57.76;100286.51;1594008;88;21510;-51
2022/09/16 02:41:13;;;;;;;8.58;3.05;;;;;;;25.86;57.81;100286.51;1610173;88;21067;-57
2022/09/16 02:43:41;;;;;;;8.25;2.98;;;;;;;25.87;58.12;100278.36;1606075;88;21148;-59
2022/09/16 02:46:33;;;;;;;11.38;3.52;;;;;;;25.89;58.20;100279.06;1613122;88;21079;-56
2022/09/16 02:49:09;;;;;;;7.47;2.80;;;;;;;25.91;58.27;100277.58;1602897;88;21143;-54
2022/09/16 02:52:04;;;;;;;8.45;3.02;;;;;;;25.91;58.26;100270.91;1607158;88;21067;-57
2022/09/16 02:55:26;;;;;;;7.87;3.10;;;;;;;25.91;58.30;100278.91;1603587;88;21091;-55
2022/09/16 02:57:53;;;;;;;7.72;2.92;;;;;;;25.91;58.31;100270.91;1600069;88;21059;-56
2022/09/16 03:00:19;;;;;;;12.55;3.40;;;;;;;25.90;58.44;100271.91;1613004;88;21097;-52
2022/09/16 03:02:47;;;;;;;16.50;4.70;;;;;;;25.90;58.51;100266.58;1596505;88;21120;-54
2022/09/16 03:05:14;;;;;;;13.05;4.97;;;;;;;25.90;58.64;100271.91;1610569;88;21112;-52
2022/09/16 03:07:42;;;;;;;13.58;4.53;;;;;;;25.90;58.72;100271.91;1636738;84;21061;-57
2022/09/16 03:10:13;;;;;;;14.13;4.42;;;;;;;25.89;58.89;100271.55;1675710;86;21071;-52
2022/09/16 03:13:18;;;;;;;11.65;4.85;;;;;;;25.90;59.07;100275.91;1652225;87;21053;-52
2022/09/16 03:16:32;;;;;;;10.32;4.05;;;;;;;25.88;59.28;100269.39;1631345;87;21064;-54
2022/09/16 03:19:45;;;;;;;12.10;4.05;;;;;;;25.88;59.43;100271.22;1598921;88;21145;-59
2022/09/16 03:22:45;;;;;;;13.00;4.08;;;;;;;25.87;59.65;100268.19;1595642;90;21044;-55
2022/09/16 03:25:20;;;;;;;13.32;3.72;;;;;;;25.86;59.89;100273.18;1595188;90;21056;-57
2022/09/16 03:28:03;;;;;;;14.40;4.03;;;;;;;25.86;60.09;100266.52;1545662;91;21102;-54
2022/09/16 03:30:32;;;;;;;12.70;3.83;;;;;;;25.84;60.19;100268.81;1515055;94;21614;-52
2022/09/16 03:33:06;;;;;;;10.13;3.92;;;;;;;25.83;60.25;100272.48;1515640;94;21133;-52
2022/09/16 03:35:43;;;;;;;15.65;4.40;;;;;;;25.83;60.32;100266.30;1518409;94;21067;-53
2022/09/16 03:38:10;;;;;;;7.45;2.60;;;;;;;25.83;60.48;100268.48;1496477;95;21138;-53
2022/09/16 03:40:37;;;;;;;8.80;3.47;;;;;;;25.83;60.53;100277.81;1496271;95;21145;-58
2022/09/16 03:43:14;;;;;;;7.40;2.40;;;;;;;25.83;60.46;100282.30;1496877;95;21049;-54
2022/09/16 03:45:42;;;;;;;8.73;2.52;;;;;;;25.81;60.47;100273.59;1496667;95;21058;-54
2022/09/16 03:48:10;;;;;;;5.40;2.45;;;;;;;25.83;60.35;100282.30;1496410;95;21128;-53
2022/09/16 03:50:38;;;;;;;6.87;2.80;;;;;;;25.82;60.10;100281.45;1496301;95;21117;-54
2022/09/16 03:53:05;;;;;;;7.92;3.02;;;;;;;25.81;59.76;100281.11;1496498;96;21113;-55
2022/09/16 03:55:32;;;;;;;9.63;3.10;;;;;;;25.80;59.55;100278.08;1496391;95;21644;-54
2022/09/16 03:57:59;;;;;;;7.62;3.10;;;;;;;25.78;58.93;100274.72;1496369;95;21103;-52
2022/09/16 04:00:25;;;;;;;8.43;2.77;;;;;;;25.78;58.93;100274.72;1496479;95;21103;-52
2022/09/16 04:02:52;;;;;;;5.25;2.40;;;;;;;25.80;58.89;100275.93;1496336;95;21172;-54
2022/09/16 04:05:18;;;;;;;6.05;2.80;;;;;;;25.79;58.62;100271.09;1496678;96;21092;-55
2022/09/16 04:07:47;;;;;;;5.47;2.42;;;;;;;25.79;58.23;100275.08;1496374;95;21137;-53
2022/09/16 04:10:16;;;;;;;5.60;2.30;;;;;;;25.79;57.99;100273.75;1539764;93;21072;-52
2022/09/16 04:12:43;;;;;;;3.92;2.37;;;;;;;25.79;57.63;100268.42;1550309;92;21076;-52
2022/09/16 04:15:12;;;;;;;3.85;2.35;;;;;;;25.79;57.34;100265.75;1549744;91;21068;-51
2022/09/16 04:17:38;;;;;;;5.85;2.20;;;;;;;25.79;57.01;100263.09;1548533;93;21124;-54
2022/09/16 04:20:07;;;;;;;4.17;2.00;;;;;;;25.79;56.52;100268.91;1543982;92;21100;-53
2022/09/16 04:22:34;;;;;;;4.15;1.77;;;;;;;25.79;56.36;100265.75;1543888;93;21080;-56
2022/09/16 04:25:01;;;;;;;5.00;2.02;;;;;;;25.79;56.09;100265.75;1604667;87;21064;-52
2022/09/16 04:27:27;;;;;;;3.08;2.35;;;;;;;25.80;55.72;100267.42;1660246;85;21107;-56
2022/09/16 04:29:54;;;;;;;2.27;1.32;;;;;;;25.81;55.43;100270.93;1669872;85;21060;-52
2022/09/16 04:32:22;;;;;;;2.85;1.72;;;;;;;25.81;55.18;100268.27;1669585;85;21009;-52
2022/09/16 04:34:49;;;;;;;2.50;1.20;;;;;;;25.82;54.83;100269.45;1710018;82;21041;-53
2022/09/16 04:37:15;;;;;;;4.30;1.80;;;;;;;25.84;54.43;100263.48;1739264;82;21478;-54
2022/09/16 04:39:42;;;;;;;2.80;1.67;;;;;;;25.86;53.98;100272.70;1706283;84;21072;-55
2022/09/16 04:42:11;;;;;;;2.45;1.35;;;;;;;25.88;53.81;100269.88;1738982;82;21002;-53
2022/09/16 04:44:38;;;;;;;2.50;1.47;;;;;;;25.90;53.55;100269.25;1706565;84;21048;-56
2022/09/16 04:47:06;;;;;;;2.50;1.70;;;;;;;25.92;53.37;100267.28;1738832;82;21591;-53
2022/09/16 04:49:32;;;;;;;2.75;1.52;;;;;;;25.94;53.08;100270.64;1700073;84;21046;-58
2022/09/16 04:51:59;;;;;;;3.12;1.55;;;;;;;25.97;52.92;100261.01;1706360;84;21060;-54
2022/09/16 04:54:26;;;;;;;3.55;1.72;;;;;;;25.98;52.81;100266.70;1739016;82;21032;-59
2022/09/16 04:56:53;;;;;;;3.27;2.00;;;;;;;26.00;52.67;100266.07;1706320;84;20990;-53
2022/09/16 04:59:20;;;;;;;4.03;1.77;;;;;;;26.03;52.48;100272.47;1738952;82;21529;-53
2022/09/16 05:01:47;;;;;;;4.45;1.95;;;;;;;26.05;52.36;100265.16;1706584;84;21010;-58
2022/09/16 05:04:14;;;;;;;2.60;1.77;;;;;;;26.08;52.21;100275.55;1739012;82;21089;-60
2022/09/16 05:06:41;;;;;;;4.58;2.05;;;;;;;26.11;52.03;100279.28;1706558;84;21017;-56
2022/09/16 05:09:10;;;;;;;4.60;1.80;;;;;;;26.18;51.68;100283.05;1737592;82;21072;-55
2022/09/16 05:11:39;;;;;;;3.95;1.77;;;;;;;26.18;51.68;100283.05;1738937;82;21064;-54
2022/09/16 05:14:07;;;;;;;3.02;1.90;;;;;;;26.21;51.47;100276.10;1738970;82;21021;-53
2022/09/16 05:16:34;;;;;;;3.30;1.90;;;;;;;26.24;51.28;100275.80;1739216;82;21025;-56
2022/09/16 05:19:05;;;;;;;6.50;2.55;;;;;;;26.27;51.12;100271.03;1720274;83;21076;-56
2022/09/16 05:21:35;;;;;;;4.22;2.10;;;;;;;26.30;50.99;100275.21;1704228;84;21005;-57
2022/09/16 05:24:07;;;;;;;7.40;1.98;;;;;;;26.32;51.01;100274.09;1727516;83;21065;-55
2022/09/16 05:26:36;;;;;;;5.80;3.47;;;;;;;26.35;50.95;100270.30;1706744;84;21018;-53
2022/09/16 05:29:07;;;;;;;7.05;3.90;;;;;;;26.35;50.70;100267.14;1727709;83;21018;-55
2022/09/16 05:31:36;;;;;;;;;;;;;;;26.36;50.48;100263.96;1709185;84;21033;-58
2022/09/16 05:34:23;;;;;;;4.37;2.80;;;;;;;26.38;50.37;100258.84;1712087;83;20508;-55
2022/09/16 05:36:52;;;;;;;3.02;2.65;;;;;;;26.41;50.27;100255.89;1712189;83;21035;-54
2022/09/16 05:39:19;;;;;;;2.83;2.33;;;;;;;26.45;50.00;100249.77;1712228;83;21023;-56
2022/09/16 05:41:47;;;;;;;3.98;2.15;;;;;;;26.52;49.77;100264.21;1712452;83;21050;-54
2022/09/16 05:44:14;;;;;;;4.75;1.98;;;;;;;26.58;49.72;100258.28;1712163;83;21538;-54
2022/09/16 05:46:41;;;;;;;4.00;2.02;;;;;;;26.66;49.32;100255.72;1712373;83;21066;-54
2022/09/16 05:49:08;;;;;;;6.45;2.50;;;;;;;26.73;48.97;100248.00;1712211;83;21035;-58
2022/09/16 05:51:38;;;;;;;4.03;2.40;;;;;;;26.78;48.86;100241.70;1712412;83;21038;-53
2022/09/16 05:54:05;;;;;;;4.45;2.30;;;;;;;26.82;48.52;100243.08;1712523;83;20991;-53
2022/09/16 05:56:32;;;;;;;5.12;1.85;;;;;;;26.81;48.41;100238.23;1712523;83;21526;-54
2022/09/16 05:58:59;;;;;;;11.55;2.90;;;;;;;26.85;48.42;100240.98;1712233;83;21035;-56
2022/09/16 06:01:32;;;;;;;5.62;2.05;;;;;;;26.85;48.42;100240.98;1712199;83;21556;-53
2022/09/16 06:04:05;;;;;;;4.03;1.92;;;;;;;26.87;48.29;100248.83;1662992;85;21041;-54
2022/09/16 06:06:37;;;;;;;8.25;2.40;;;;;;;26.90;48.30;100244.02;1684569;84;21635;-55
2022/09/16 06:09:08;;;;;;;7.87;3.00;;;;;;;26.90;48.30;100244.02;1662486;86;21097;-59
2022/09/16 06:11:39;;;;;;;2.75;2.33;;;;;;;26.92;48.27;100250.54;1679197;85;21079;-53
2022/09/16 06:14:06;;;;;;;5.72;2.40;;;;;;;26.90;48.43;100257.86;1610928;88;21045;-56
2022/09/16 06:16:35;;;;;;;4.87;2.20;;;;;;;26.90;48.13;100253.37;1599149;88;21557;-55
2022/09/16 06:19:05;;;;;;;7.05;2.50;;;;;;;26.89;48.06;100252.19;1608167;88;21120;-54
2022/09/16 06:21:32;;;;;;;2.45;2.00;;;;;;;26.87;48.02;100253.69;1604648;88;21023;-54
2022/09/16 06:23:59;;;;;;;5.20;2.22;;;;;;;26.87;47.95;100254.17;1607819;88;21047;-61
2022/09/16 06:26:26;;;;;;;5.50;2.45;;;;;;;26.85;47.93;100259.67;1609114;88;21516;-55
2022/09/16 06:28:53;;;;;;;5.28;2.15;;;;;;;26.84;47.93;100253.97;1609119;88;21100;-55
2022/09/16 06:31:25;;;;;;;3.02;2.30;;;;;;;26.85;48.02;100255.66;1608918;88;21125;-53
2022/09/16 06:33:52;;;;;;;3.12;2.30;;;;;;;26.85;47.77;100257.00;1597223;88;21043;-53
2022/09/16 06:36:22;;;;;;;5.67;2.30;;;;;;;26.86;47.59;100262.67;1623877;87;21050;-56
2022/09/16 06:38:50;;;;;;;4.60;2.25;;;;;;;26.86;47.59;100262.67;1597437;90;21113;-54
2022/09/16 06:41:18;;;;;;;12.00;2.95;;;;;;;26.84;47.92;100251.30;1573905;91;21573;-55
2022/09/16 06:43:45;;;;;;;5.78;2.70;;;;;;;26.84;47.64;100248.62;1574000;89;21600;-57
2022/09/16 06:46:17;;;;;;;4.33;2.45;;;;;;;26.87;47.55;100272.38;1574239;91;21108;-58
2022/09/16 06:48:47;;;;;;;6.72;2.85;;;;;;;26.87;47.55;100272.38;1572799;91;21536;-53
2022/09/16 06:51:16;;;;;;;7.60;2.62;;;;;;;26.88;47.69;100275.38;1573864;91;21548;-61
2022/09/16 06:53:44;;;;;;;4.45;2.58;;;;;;;26.89;47.67;100281.07;1573979;89;21112;-54
2022/09/16 06:56:13;;;;;;;4.17;2.20;;;;;;;26.92;47.74;100282.09;1573999;89;21169;-53
2022/09/16 06:58:41;;;;;;;9.28;2.70;;;;;;;26.94;47.72;100283.27;1524957;94;21123;-61
2022/09/16 07:01:11;;;;;;;7.45;2.15;;;;;;;26.99;47.79;100287.20;1525554;94;21120;-55
2022/09/16 07:03:41;;;;;;;10.23;2.70;;;;;;;27.05;47.71;100288.42;1483439;97;21582;-56
2022/09/16 07:06:08;;;;;;;5.17;2.22;;;;;;;27.11;47.47;100298.02;1483403;95;21539;-57
2022/09/16 07:08:35;;;;;;;5.05;2.52;;;;;;;27.17;47.29;100304.09;1502521;94;21140;-54
2022/09/16 07:11:14;;;;;;;7.60;2.67;;;;;;;27.23;46.76;100301.31;1537356;91;21103;-56
2022/09/16 07:13:42;;;;;;;5.00;2.50;;;;;;;27.29;46.94;100305.56;1587238;90;21098;-54
2022/09/16 07:16:17;;;;;;;4.40;2.42;;;;;;;27.35;46.63;100298.80;1595605;89;21522;-63
2022/09/16 07:18:45;;;;;;;4.95;2.33;;;;;;;27.41;46.77;100306.72;1612388;88;21119;-55
2022/09/16 07:21:15;;;;;;;6.62;1.90;;;;;;;27.46;46.48;100303.08;1612280;89;21160;-57
2022/09/16 07:23:42;;;;;;;4.62;2.22;;;;;;;27.54;46.45;100317.86;1612574;89;21073;-58
2022/09/16 07:26:21;;;;;;;4.78;2.27;;;;;;;27.60;45.89;100326.61;1612650;89;21037;-56
2022/09/16 07:28:49;;;;;;;5.90;2.52;;;;;;;27.64;45.71;100320.81;1601985;89;21030;-58
2022/09/16 07:31:23;;;;;;;3.37;2.02;;;;;;;27.69;45.65;100315.02;1612544;89;21613;-54
2022/09/16 07:33:51;;;;;;;3.40;1.92;;;;;;;27.72;45.47;100320.06;1617176;87;21073;-60
2022/09/16 07:36:21;;;;;;;4.85;2.05;;;;;;;27.76;45.21;100322.78;1619852;88;21090;-56
2022/09/16 07:38:48;;;;;;;5.65;1.98;;;;;;;27.80;44.84;100326.83;1618917;88;21529;-56
2022/09/16 07:41:19;;;;;;;5.25;1.80;;;;;;;27.86;44.74;100327.55;1619689;88;21137;-62
2022/09/16 07:43:46;;;;;;;5.75;2.80;;;;;;;27.93;44.63;100326.77;1574440;90;21069;-59
2022/09/16 07:46:17;;;;;;;18.48;11.73;;;;;;;28.02;44.42;100323.70;1564060;90;21099;-54
2022/09/16 07:48:44;;;;;;;;;;;;;;;28.12;44.22;100325.78;1572332;90;21096;-54
2022/09/16 07:51:14;;;;;;;29.05;23.22;;;;;;;28.04;44.72;100317.70;1570827;90;20141;-53
2022/09/16 07:53:40;;;;;;;22.50;14.90;;;;;;;28.00;45.00;100325.20;1572454;90;21118;-54
2022/09/16 07:56:11;;;;;;;13.03;9.03;;;;;;;28.35;43.94;100329.64;1619145;87;21091;-56
2022/09/16 07:58:39;;;;;;;;;;;;;;;28.46;43.44;100321.33;1557747;92;21083;-55
2022/09/16 08:01:06;;;;;;;7.22;6.08;;;;;;;28.58;43.08;100323.29;1572179;91;20155;-55
2022/09/16 08:03:35;;;;;;;7.00;4.20;;;;;;;28.66;42.52;100320.16;1563767;91;21099;-54
2022/09/16 08:06:07;;;;;;;11.97;8.08;;;;;;;28.71;42.18;100320.51;1577332;91;21091;-55
2022/09/16 08:08:35;;;;;;;7.83;5.17;;;;;;;28.73;41.55;100324.36;1529639;93;21106;-54
2022/09/16 08:11:02;;;;;;;8.03;4.37;;;;;;;28.75;41.38;100329.05;1516892;94;21077;-58
2022/09/16 08:13:32;;;;;;;6.67;4.42;;;;;;;28.77;41.55;100330.58;1517009;94;21094;-54
2022/09/16 08:16:05;;;;;;;5.65;3.22;;;;;;;28.78;41.55;100329.59;1510811;94;21104;-56
2022/09/16 08:18:33;;;;;;;3.05;2.15;;;;;;;28.80;41.35;100330.28;1495799;95;21098;-56
2022/09/16 08:21:09;;;;;;;4.37;2.02;;;;;;;28.80;41.21;100323.58;1494288;95;21083;-53
2022/09/16 08:23:36;;;;;;;4.40;2.10;;;;;;;28.85;41.36;100325.27;1539302;93;21154;-53
2022/09/16 08:26:03;;;;;;;8.13;2.30;;;;;;;28.91;41.73;100319.78;1535289;92;21090;-56
2022/09/16 08:28:30;;;;;;;2.98;1.95;;;;;;;28.96;41.84;100323.65;1537926;93;21508;-53
2022/09/16 08:31:00;;;;;;;6.75;2.27;;;;;;;29.02;41.41;100320.00;1538001;92;21122;-58
2022/09/16 08:33:27;;;;;;;4.40;2.23;;;;;;;29.08;41.29;100313.99;1546876;91;21161;-58
2022/09/16 08:36:13;;;;;;;3.52;2.10;;;;;;;29.13;41.36;100319.69;1558239;91;21354;-56
2022/09/16 08:38:42;;;;;;;4.47;2.12;;;;;;;29.19;41.09;100309.69;1561602;91;21104;-54
2022/09/16 08:41:44;;;;;;;3.37;2.15;;;;;;;29.23;40.72;100301.17;1560046;90;21081;-57
2022/09/16 08:44:38;;;;;;;2.98;2.05;;;;;;;29.25;41.13;100299.16;1561036;91;21137;-54
2022/09/16 08:47:15;;;;;;;3.87;2.00;;;;;;;29.30;41.20;100286.62;1573087;90;21067;-54
2022/09/16 08:49:45;;;;;;;5.42;1.95;;;;;;;29.35;41.04;100286.95;1539195;92;21581;-55
2022/09/16 08:52:28;;;;;;;5.70;2.42;;;;;;;29.40;41.23;100284.63;1539413;92;21284;-54
2022/09/16 08:55:09;;;;;;;3.52;2.05;;;;;;;29.42;41.63;100290.66;1545887;90;21593;-56
2022/09/16 08:57:40;;;;;;;5.28;2.45;;;;;;;29.44;41.97;100295.35;1550233;91;21105;-54
2022/09/16 09:00:14;;;;;;;5.50;2.67;;;;;;;29.45;42.18;100285.80;1555336;91;21054;-54
2022/09/16 09:02:51;;;;;;;4.45;2.80;;;;;;;29.48;42.52;100284.63;1553130;90;21704;-54
2022/09/16 09:05:33;;;;;;;5.05;2.65;;;;;;;29.50;42.50;100285.31;1566598;90;21140;-56
2022/09/16 09:08:08;;;;;;;3.90;2.75;;;;;;;29.50;42.58;100292.01;1554694;92;21086;-54
2022/09/16 09:11:04;;;;;;;3.95;2.55;;;;;;;29.51;42.75;100296.38;1576825;91;21088;-57
2022/09/16 09:14:15;;;;;;;4.75;2.50;;;;;;;29.51;42.71;100302.56;1573785;91;21075;-54
2022/09/16 09:17:03;;;;;;;5.12;3.10;;;;;;;29.53;42.92;100301.89;1577142;91;21140;-57
2022/09/16 09:19:49;;;;;;;3.85;2.58;;;;;;;29.56;42.84;100303.41;1542759;91;21100;-57
2022/09/16 09:22:44;;;;;;;3.17;2.33;;;;;;;29.59;42.62;100308.45;1568837;90;21034;-62
2022/09/16 09:25:58;;;;;;;2.85;2.15;;;;;;;29.59;41.92;100312.48;1580390;89;21050;-54
2022/09/16 09:29:03;;;;;;;4.28;1.82;;;;;;;29.60;42.14;100322.19;1608024;89;21088;-58
2022/09/16 09:31:59;;;;;;;4.45;2.30;;;;;;;29.60;42.29;100318.16;1607618;89;21080;-61
2022/09/16 09:34:59;;;;;;;6.00;2.75;;;;;;;29.62;42.45;100327.72;1607808;89;21128;-54
2022/09/16 09:38:02;;;;;;;3.65;2.15;;;;;;;29.59;42.44;100328.04;1605770;88;21092;-55
2022/09/16 09:41:02;;;;;;;3.22;1.92;;;;;;;29.54;42.92;100341.61;1601022;88;21098;-59
2022/09/16 09:43:44;;;;;;;4.67;2.70;;;;;;;29.51;42.98;100341.95;1608073;89;21580;-58
2022/09/16 09:46:28;;;;;;;3.00;2.00;;;;;;;29.48;42.55;100342.27;1596225;85;21169;-56
2022/09/16 09:49:03;;;;;;;3.12;1.92;;;;;;;29.49;42.48;100339.94;1651362;85;21096;-59
2022/09/16 09:51:37;;;;;;;6.30;2.22;;;;;;;29.48;42.75;100336.91;1630211;86;21054;-53
2022/09/16 09:54:33;;;;;;;4.92;2.00;;;;;;;29.49;42.47;100352.00;1628810;86;21514;-53
2022/09/16 09:57:24;;;;;;;3.70;2.05;;;;;;;29.51;42.14;100351.34;1611309;87;21192;-58
2022/09/16 10:00:10;;;;;;;3.35;2.12;;;;;;;29.52;42.30;100352.51;1603723;88;21094;-54
2022/09/16 10:02:42;;;;;;;4.90;2.00;;;;;;;29.53;42.53;100350.67;1601853;88;21108;-54
2022/09/16 10:05:36;;;;;;;4.17;1.95;;;;;;;29.54;42.52;100351.00;1599424;88;21093;-56
2022/09/16 10:08:29;;;;;;;4.10;2.12;;;;;;;29.57;42.18;100350.69;1478375;97;21130;-56
2022/09/16 10:11:02;;;;;;;4.67;1.55;;;;;;;29.60;41.76;100342.30;1502333;95;21143;-54
2022/09/16 10:13:29;;;;;;;2.80;1.52;;;;;;;29.63;41.79;100336.61;1502917;95;21159;-53
2022/09/16 10:16:11;;;;;;;2.00;1.50;;;;;;;29.65;42.04;100334.61;1502805;95;21554;-54
2022/09/16 10:18:38;;;;;;;3.80;1.77;;;;;;;29.70;41.70;100329.56;1480110;97;21670;-53
2022/09/16 10:21:14;;;;;;;4.62;2.27;;;;;;;29.72;41.38;100322.20;1457932;98;21103;-55
2022/09/16 10:23:43;;;;;;;2.60;1.90;;;;;;;29.75;41.57;100329.95;1477868;96;21080;-59
2022/09/16 10:26:22;;;;;;;3.55;2.15;;;;;;;29.78;41.32;100337.66;1476910;97;21705;-60
2022/09/16 10:29:02;;;;;;;2.87;1.67;;;;;;;29.81;41.72;100342.70;1457131;98;21071;-54
2022/09/16 10:31:36;;;;;;;3.10;1.98;;;;;;;29.85;41.84;100350.75;1486170;94;21167;-56
2022/09/16 10:34:07;;;;;;;2.60;1.80;;;;;;;29.88;41.82;100351.77;1535066;92;21133;-57
2022/09/16 10:36:34;;;;;;;2.98;1.90;;;;;;;29.90;41.91;100363.17;1521858;93;21163;-52
2022/09/16 10:39:01;;;;;;;3.87;1.65;;;;;;;29.87;42.08;100355.45;1552827;92;21106;-60
2022/09/16 10:41:36;;;;;;;2.87;1.90;;;;;;;29.82;42.08;100354.27;1547842;92;21094;-53
2022/09/16 10:44:22;;;;;;;4.05;1.90;;;;;;;29.72;42.29;100354.38;1545706;92;21029;-57
2022/09/16 10:47:02;;;;;;;2.85;1.40;;;;;;;29.64;42.37;100351.69;1550506;91;21097;-54
2022/09/16 10:49:39;;;;;;;3.33;1.52;;;;;;;29.54;42.29;100348.31;1541471;92;21065;-56
2022/09/16 10:52:15;;;;;;;4.28;1.60;;;;;;;29.46;42.22;100343.78;1545285;92;21126;-60
2022/09/16 10:54:42;;;;;;;5.25;1.47;;;;;;;29.40;42.25;100343.10;1545024;92;21118;-56
2022/09/16 10:57:29;;;;;;;2.10;1.30;;;;;;;29.39;42.33;100352.63;1544988;92;21545;-54
2022/09/16 11:00:11;;;;;;;2.85;1.47;;;;;;;29.38;42.79;100358.51;1545204;92;21073;-55
2022/09/16 11:02:58;;;;;;;3.27;1.72;;;;;;;29.40;43.38;100361.02;1490842;95;21166;-56
2022/09/16 11:05:30;;;;;;;3.52;2.00;;;;;;;29.41;43.72;100364.87;1465353;97;21061;-56
2022/09/16 11:08:20;;;;;;;5.72;1.60;;;;;;;29.45;42.97;100370.23;1482411;94;21101;-59
2022/09/16 11:11:08;;;;;;;2.98;1.85;;;;;;;29.49;43.08;100372.11;1471038;96;21115;-56
2022/09/16 11:14:10;;;;;;;3.92;1.57;;;;;;;29.54;43.44;100372.45;1457012;97;21098;-56
2022/09/16 11:17:13;;;;;;;7.00;2.47;;;;;;;29.58;43.32;100376.47;1451153;99;21208;-56
2022/09/16 11:20:03;;;;;;;3.83;1.80;;;;;;;29.62;42.84;100377.33;1480065;96;21157;-54
2022/09/16 11:23:05;;;;;;;2.42;1.60;;;;;;;29.65;42.60;100380.19;1474790;96;21624;-57
2022/09/16 11:25:52;;;;;;;5.25;1.65;;;;;;;29.66;42.11;100384.53;1492734;96;21099;-61
2022/09/16 11:28:50;;;;;;;2.35;1.80;;;;;;;29.68;42.71;100383.87;1492874;96;21143;-60
2022/09/16 11:31:42;;;;;;;4.37;1.98;;;;;;;29.70;42.97;100379.18;1417190;99;21136;-54
2022/09/16 11:34:48;;;;;;;6.35;1.72;;;;;;;29.69;42.32;100376.18;1404312;102;21212;-54
2022/09/16 11:37:32;;;;;;;4.22;1.85;;;;;;;29.68;42.19;100380.70;1408795;102;21109;-52
2022/09/16 11:40:10;;;;;;;5.70;2.00;;;;;;;29.69;42.11;100381.54;1461631;98;21088;-53
2022/09/16 11:42:59;;;;;;;6.17;3.00;;;;;;;29.67;42.13;100379.52;1456231;98;21659;-53
2022/09/16 11:45:52;;;;;;;4.65;2.17;;;;;;;29.66;42.02;100388.56;1437546;98;21161;-55
2022/09/16 11:48:42;;;;;;;4.65;2.20;;;;;;;29.65;41.87;100398.47;1474588;97;21150;-54
2022/09/16 11:51:47;;;;;;;4.62;1.80;;;;;;;29.67;41.94;100392.44;1475365;97;21092;-52
2022/09/16 11:54:25;;;;;;;5.05;2.20;;;;;;;29.71;42.01;100401.84;1472783;97;21652;-54
2022/09/16 11:57:03;;;;;;;3.05;1.67;;;;;;;29.77;42.06;100411.58;1478005;95;21556;-54
2022/09/16 11:59:38;;;;;;;2.83;1.77;;;;;;;29.83;41.99;100406.90;1477942;97;21109;-53
2022/09/16 12:02:39;;;;;;;2.95;1.50;;;;;;;29.85;42.07;100397.69;1459706;97;21560;-54